Time;durP1;ratioP1;P1;durP2;ratioP2;P2;SDS_P1;SDS_P2;PMS_P1;PMS_P2;Temp;Humidity;BMP_temperature;BMP_pressure;BME280_temperature;BME280_humidity;BME280_pressure;Samples;Min_cycle;Max_cycle;Signal;HPM_P1;HPM_P2
2021/04/07 00:00:54;;;;;;;;;;;;;;;;;;5034072;28;2754;-62
2021/04/07 00:03:19;;;;;;;;;;;;;;;;;;5042655;28;1898;-62
2021/04/07 00:05:45;;;;;;;;;;;;;;;;;;5027142;28;1358;-62
2021/04/07 00:08:11;;;;;;;;;;;;;;;;;;5028157;28;819;-62
2021/04/07 00:10:40;;;;;;;;;;;;;;;;;;5027361;28;839;-63
2021/04/07 00:13:07;;;;;;;;;;;;;;;;;;5026878;28;1388;-62
2021/04/07 00:15:33;;;;;;;;;;;;;;;;;;5027971;28;863;-62
2021/04/07 00:17:59;;;;;;;;;;;;;;;;;;5027511;28;918;-62
2021/04/07 00:20:25;;;;;;;;;;;;;;;;;;5027379;28;1026;-61
2021/04/07 00:22:51;;;;;;;;;;;;;;;;;;5027859;28;894;-62
2021/04/07 00:25:17;;;;;;;;;;;;;;;;;;5027716;28;1898;-62
2021/04/07 00:27:44;;;;;;;;;;;;;;;;;;5027354;28;851;-62
2021/04/07 00:30:10;;;;;;;;;;;;;;;;;;5027195;28;855;-62
2021/04/07 00:32:36;;;;;;;;;;;;;;;;;;5027546;28;895;-62
2021/04/07 00:35:03;;;;;;;;;;;;;;;;;;5026492;28;1338;-62
2021/04/07 00:37:28;;;;;;;;;;;;;;;;;;5026795;28;879;-63
2021/04/07 00:39:53;;;;;;;;;;;;;;;;;;5027899;28;887;-62
2021/04/07 00:42:19;;;;;;;;;;;;;;;;;;5027074;28;820;-62
2021/04/07 00:44:44;;;;;;;;;;;;;;;;;;5027103;28;1917;-62
2021/04/07 00:47:10;;;;;;;;;;;;;;;;;;5027177;28;828;-62
2021/04/07 00:49:36;;;;;;;;;;;;;;;;;;5030622;28;683;-62
2021/04/07 00:52:01;;;;;;;;;;;;;;;;;;5031065;28;835;-62
2021/04/07 00:54:27;;;;;;;;;;;;;;;;;;5030943;28;1092;-63
2021/04/07 00:56:52;;;;;;;;;;;;;;;;;;5032084;28;950;-62
2021/04/07 00:59:19;;;;;;;;;;;;;;;;;;5031180;28;899;-62
2021/04/07 01:01:44;;;;;;;;;;;;;;;;;;5030842;28;847;-62
2021/04/07 01:04:11;;;;;;;;;;;;;;;;;;5030339;28;1981;-62
2021/04/07 01:06:37;;;;;;;;;;;;;;;;;;5031031;28;883;-62
2021/04/07 01:09:02;;;;;;;;;;;;;;;;;;5030448;28;859;-62
2021/04/07 01:11:28;;;;;;;;;;;;;;;;;;5030249;28;843;-63
2021/04/07 01:13:53;;;;;;;;;;;;;;;;;;5031553;28;828;-61
2021/04/07 01:16:19;;;;;;;;;;;;;;;;;;5030545;28;852;-61
2021/04/07 01:18:44;;;;;;;;;;;;;;;;;;5030311;28;899;-61
2021/04/07 01:21:10;;;;;;;;;;;;;;;;;;5030848;28;832;-61
2021/04/07 01:23:36;;;;;;;;;;;;;;;;;;5030363;28;1989;-61
2021/04/07 01:26:01;;;;;;;;;;;;;;;;;;5029952;28;851;-62
2021/04/07 01:28:27;;;;;;;;;;;;;;;;;;5030066;28;859;-61
2021/04/07 01:30:52;;;;;;;;;;;;;;;;;;5031400;28;836;-61
2021/04/07 01:33:18;;;;;;;;;;;;;;;;;;5029533;28;1463;-61
2021/04/07 01:35:44;;;;;;;;;;;;;;;;;;5030065;28;816;-60
2021/04/07 01:38:09;;;;;;;;;;;;;;;;;;5029706;28;1393;-61
2021/04/07 01:40:35;;;;;;;;;;;;;;;;;;5030132;28;855;-60
2021/04/07 01:43:01;;;;;;;;;;;;;;;;;;5029802;28;843;-61
2021/04/07 01:45:26;;;;;;;;;;;;;;;;;;5029709;28;1987;-62
2021/04/07 01:47:54;;;;;;;;;;;;;;;;;;5031085;28;807;-62
2021/04/07 01:50:19;;;;;;;;;;;;;;;;;;5029305;28;835;-62
2021/04/07 01:52:45;;;;;;;;;;;;;;;;;;5029454;28;1028;-62
2021/04/07 01:55:11;;;;;;;;;;;;;;;;;;5029710;28;811;-62
2021/04/07 01:57:36;;;;;;;;;;;;;;;;;;5029930;28;1030;-62
2021/04/07 02:00:04;;;;;;;;;;;;;;;;;;5029649;28;929;-62
2021/04/07 02:02:29;;;;;;;;;;;;;;;;;;5029745;28;851;-62
2021/04/07 02:04:55;;;;;;;;;;;;;;;;;;5030416;28;1902;-62
2021/04/07 02:07:21;;;;;;;;;;;;;;;;;;5030441;28;798;-62
2021/04/07 02:09:46;;;;;;;;;;;;;;;;;;5029631;28;895;-62
2021/04/07 02:12:12;;;;;;;;;;;;;;;;;;5029843;28;854;-63
2021/04/07 02:14:37;;;;;;;;;;;;;;;;;;5028155;28;1351;-62
2021/04/07 02:17:04;;;;;;;;;;;;;;;;;;5029569;28;799;-62
2021/04/07 02:19:31;;;;;;;;;;;;;;;;;;5029281;28;854;-62
2021/04/07 02:22:03;;;;;;;;;;;;;;;;;;5029110;28;1043;-63
2021/04/07 02:24:29;;;;;;;;;;;;;;;;;;5029037;28;1898;-62
2021/04/07 02:26:54;;;;;;;;;;;;;;;;;;5030003;28;891;-62
2021/04/07 02:29:19;;;;;;;;;;;;;;;;;;5029711;28;832;-63
2021/04/07 02:31:45;;;;;;;;;;;;;;;;;;5029469;28;828;-62
2021/04/07 02:34:11;;;;;;;;;;;;;;;;;;5010713;28;1245;-62
2021/04/07 02:36:36;;;;;;;;;;;;;;;;;;5029071;28;856;-62
2021/04/07 02:39:02;;;;;;;;;;;;;;;;;;5029174;28;894;-62
2021/04/07 02:41:27;;;;;;;;;;;;;;;;;;5044455;28;847;-62
2021/04/07 02:43:53;;;;;;;;;;;;;;;;;;5029554;28;1882;-62
2021/04/07 02:46:18;;;;;;;;;;;;;;;;;;5029332;28;812;-62
2021/04/07 02:48:43;;;;;;;;;;;;;;;;;;5044221;28;852;-62
2021/04/07 02:51:09;;;;;;;;;;;;;;;;;;5028747;28;832;-63
2021/04/07 02:53:34;;;;;;;;;;;;;;;;;;5028709;28;1080;-61
2021/04/07 02:55:59;;;;;;;;;;;;;;;;;;5028849;28;801;-62
2021/04/07 02:58:25;;;;;;;;;;;;;;;;;;5044483;28;899;-62
2021/04/07 03:00:51;;;;;;;;;;;;;;;;;;5056674;28;1278;-62
2021/04/07 03:03:16;;;;;;;;;;;;;;;;;;5028390;28;1973;-62
2021/04/07 03:05:41;;;;;;;;;;;;;;;;;;5028131;28;906;-62
2021/04/07 03:08:07;;;;;;;;;;;;;;;;;;5028181;28;895;-62
2021/04/07 03:10:32;;;;;;;;;;;;;;;;;;5028376;28;828;-62
2021/04/07 03:12:57;;;;;;;;;;;;;;;;;;5028604;28;839;-62
2021/04/07 03:15:23;;;;;;;;;;;;;;;;;;5028995;28;799;-62
2021/04/07 03:17:48;;;;;;;;;;;;;;;;;;5028199;28;835;-62
2021/04/07 03:20:14;;;;;;;;;;;;;;;;;;5027822;28;819;-62
2021/04/07 03:22:39;;;;;;;;;;;;;;;;;;5027808;28;954;-62
2021/04/07 03:25:05;;;;;;;;;;;;;;;;;;5028053;28;1921;-62
2021/04/07 03:27:31;;;;;;;;;;;;;;;;;;5028602;28;1004;-61
2021/04/07 03:29:59;;;;;;;;;;;;;;;;;;5028253;28;832;-60
2021/04/07 03:32:26;;;;;;;;;;;;;;;;;;5028733;28;1203;-62
2021/04/07 03:34:51;;;;;;;;;;;;;;;;;;5029213;28;846;-62
2021/04/07 03:37:16;;;;;;;;;;;;;;;;;;5028523;28;834;-62
2021/04/07 03:39:42;;;;;;;;;;;;;;;;;;5027812;28;827;-62
2021/04/07 03:42:07;;;;;;;;;;;;;;;;;;5027469;28;723;-62
2021/04/07 03:44:33;;;;;;;;;;;;;;;;;;5028402;28;1894;-63
2021/04/07 03:46:58;;;;;;;;;;;;;;;;;;5028060;28;815;-63
2021/04/07 03:49:23;;;;;;;;;;;;;;;;;;5027567;28;815;-62
2021/04/07 03:51:49;;;;;;;;;;;;;;;;;;5027206;28;907;-62
2021/04/07 03:54:14;;;;;;;;;;;;;;;;;;5027952;28;1147;-62
2021/04/07 03:56:40;;;;;;;;;;;;;;;;;;5027591;28;1215;-62
2021/04/07 03:59:06;;;;;;;;;;;;;;;;;;5028480;28;954;-62
2021/04/07 04:01:31;;;;;;;;;;;;;;;;;;5047317;28;826;-62
2021/04/07 04:03:56;;;;;;;;;;;;;;;;;;5028047;28;1902;-62
2021/04/07 04:06:22;;;;;;;;;;;;;;;;;;5028331;28;823;-61
2021/04/07 04:08:47;;;;;;;;;;;;;;;;;;5027684;28;1085;-62
2021/04/07 04:11:13;;;;;;;;;;;;;;;;;;5027790;28;819;-62
2021/04/07 04:13:38;;;;;;;;;;;;;;;;;;5027060;28;986;-62
2021/04/07 04:16:04;;;;;;;;;;;;;;;;;;5026866;28;882;-62
2021/04/07 04:18:29;;;;;;;;;;;;;;;;;;5027025;28;1229;-62
2021/04/07 04:20:55;;;;;;;;;;;;;;;;;;5009787;28;1194;-63
2021/04/07 04:23:20;;;;;;;;;;;;;;;;;;5026172;28;1906;-61
2021/04/07 04:25:45;;;;;;;;;;;;;;;;;;5043826;28;1450;-61
2021/04/07 04:28:11;;;;;;;;;;;;;;;;;;5027162;28;816;-63
2021/04/07 04:30:36;;;;;;;;;;;;;;;;;;5027233;28;832;-62
2021/04/07 04:33:01;;;;;;;;;;;;;;;;;;5009585;28;840;-61
2021/04/07 04:35:27;;;;;;;;;;;;;;;;;;5042539;28;835;-61
2021/04/07 04:37:52;;;;;;;;;;;;;;;;;;5027967;28;827;-62
2021/04/07 04:40:18;;;;;;;;;;;;;;;;;;5042314;28;1282;-61
2021/04/07 04:42:43;;;;;;;;;;;;;;;;;;5027575;28;815;-61
2021/04/07 04:45:09;;;;;;;;;;;;;;;;;;5026961;28;1893;-62
2021/04/07 04:47:35;;;;;;;;;;;;;;;;;;5026890;28;827;-62
2021/04/07 04:50:00;;;;;;;;;;;;;;;;;;5027334;28;977;-62
2021/04/07 04:52:26;;;;;;;;;;;;;;;;;;5042613;28;870;-62
2021/04/07 04:54:51;;;;;;;;;;;;;;;;;;5026797;28;1229;-61
2021/04/07 04:57:17;;;;;;;;;;;;;;;;;;5026067;28;876;-62
2021/04/07 04:59:42;;;;;;;;;;;;;;;;;;5026841;28;932;-61
2021/04/07 05:02:08;;;;;;;;;;;;;;;;;;5035300;28;1032;-61
2021/04/07 05:04:33;;;;;;;;;;;;;;;;;;5041268;28;1906;-62
2021/04/07 05:06:59;;;;;;;;;;;;;;;;;;5026520;28;895;-62
2021/04/07 05:09:24;;;;;;;;;;;;;;;;;;5027265;28;847;-62
2021/04/07 05:11:50;;;;;;;;;;;;;;;;;;5041984;28;1202;-63
2021/04/07 05:14:17;;;;;;;;;;;;;;;;;;5026391;28;899;-62
2021/04/07 05:16:42;;;;;;;;;;;;;;;;;;5025897;28;1033;-63
2021/04/07 05:19:08;;;;;;;;;;;;;;;;;;5026569;28;824;-63
2021/04/07 05:21:33;;;;;;;;;;;;;;;;;;5041732;28;912;-63
2021/04/07 05:23:58;;;;;;;;;;;;;;;;;;5042129;28;1894;-63
2021/04/07 05:26:24;;;;;;;;;;;;;;;;;;5027495;28;834;-63
2021/04/07 05:28:49;;;;;;;;;;;;;;;;;;5026263;28;803;-63
2021/04/07 05:31:15;;;;;;;;;;;;;;;;;;5026276;28;811;-62
2021/04/07 05:33:42;;;;;;;;;;;;;;;;;;5008857;28;812;-62
2021/04/07 05:36:09;;;;;;;;;;;;;;;;;;5029580;28;910;-63
2021/04/07 05:38:34;;;;;;;;;;;;;;;;;;5029644;28;843;-62
2021/04/07 05:41:00;;;;;;;;;;;;;;;;;;5030368;28;863;-63
2021/04/07 05:43:26;;;;;;;;;;;;;;;;;;5030177;28;1906;-62
2021/04/07 05:45:52;;;;;;;;;;;;;;;;;;5029143;28;1180;-62
2021/04/07 05:48:18;;;;;;;;;;;;;;;;;;5029443;28;1115;-62
2021/04/07 05:50:45;;;;;;;;;;;;;;;;;;5030096;28;1579;-63
2021/04/07 05:53:10;;;;;;;;;;;;;;;;;;5021278;28;1648;-63
2021/04/07 05:55:36;;;;;;;;;;;;;;;;;;5038358;28;1151;-62
2021/04/07 05:58:01;;;;;;;;;;;;;;;;;;5039542;28;1198;-63
2021/04/07 06:00:27;;;;;;;;;;;;;;;;;;5057201;28;1188;-62
2021/04/07 06:02:54;;;;;;;;;;;;;;;;;;5032160;28;1164;-62
2021/04/07 06:05:20;;;;;;;;;;;;;;;;;;5029689;28;1905;-62
2021/04/07 06:07:45;;;;;;;;;;;;;;;;;;5045264;28;1266;-62
2021/04/07 06:10:11;;;;;;;;;;;;;;;;;;5045465;28;1067;-63
2021/04/07 06:12:36;;;;;;;;;;;;;;;;;;5048901;28;842;-61
2021/04/07 06:15:02;;;;;;;;;;;;;;;;;;5043913;28;984;-63
2021/04/07 06:17:28;;;;;;;;;;;;;;;;;;5029230;28;832;-62
2021/04/07 06:19:53;;;;;;;;;;;;;;;;;;5041475;28;1172;-62
2021/04/07 06:22:18;;;;;;;;;;;;;;;;;;5033930;28;1785;-62
2021/04/07 06:24:44;;;;;;;;;;;;;;;;;;5017468;28;1895;-63
2021/04/07 06:27:09;;;;;;;;;;;;;;;;;;5022340;28;1701;-62
2021/04/07 06:29:34;;;;;;;;;;;;;;;;;;5028555;28;914;-62
2021/04/07 06:32:00;;;;;;;;;;;;;;;;;;5007693;28;1804;-62
2021/04/07 06:34:25;;;;;;;;;;;;;;;;;;5009565;28;1530;-62
2021/04/07 06:36:51;;;;;;;;;;;;;;;;;;5027618;28;1120;-61
2021/04/07 06:39:17;;;;;;;;;;;;;;;;;;5027614;28;1469;-62
2021/04/07 06:41:42;;;;;;;;;;;;;;;;;;5028366;28;812;-62
2021/04/07 06:44:08;;;;;;;;;;;;;;;;;;5028539;28;1898;-62
2021/04/07 06:46:33;;;;;;;;;;;;;;;;;;5027754;28;1125;-63
2021/04/07 06:49:00;;;;;;;;;;;;;;;;;;5029281;28;852;-63
2021/04/07 06:51:26;;;;;;;;;;;;;;;;;;5029669;28;943;-62
2021/04/07 06:53:51;;;;;;;;;;;;;;;;;;5029669;28;1135;-63
2021/04/07 06:56:20;;;;;;;;;;;;;;;;;;5038151;28;1465;-62
2021/04/07 06:58:45;;;;;;;;;;;;;;;;;;5030846;28;1843;-62
2021/04/07 07:01:11;;;;;;;;;;;;;;;;;;5030593;28;1182;-62
2021/04/07 07:03:36;;;;;;;;;;;;;;;;;;5028589;28;1894;-61
2021/04/07 07:06:01;;;;;;;;;;;;;;;;;;5044082;28;958;-63
2021/04/07 07:08:29;;;;;;;;;;;;;;;;;;5045569;28;1175;-61
2021/04/07 07:10:55;;;;;;;;;;;;;;;;;;5038256;28;1028;-62
2021/04/07 07:13:22;;;;;;;;;;;;;;;;;;5029036;28;992;-62
2021/04/07 07:15:49;;;;;;;;;;;;;;;;;;5028595;28;811;-62
2021/04/07 07:18:24;;;;;;;;;;;;;;;;;;5028215;28;839;-62
2021/04/07 07:20:50;;;;;;;;;;;;;;;;;;5028465;28;823;-62
2021/04/07 07:23:27;;;;;;;;;;;;;;;;;;5028272;28;843;-62
2021/04/07 07:25:54;;;;;;;;;;;;;;;;;;5027606;28;1338;-62
2021/04/07 07:28:19;;;;;;;;;;;;;;;;;;5028579;28;843;-62
2021/04/07 07:30:45;;;;;;;;;;;;;;;;;;5027444;28;1649;-62
2021/04/07 07:33:21;;;;;;;;;;;;;;;;;;5021231;28;1521;-62
2021/04/07 07:35:48;;;;;;;;;;;;;;;;;;5020500;28;1470;-62
2021/04/07 07:38:20;;;;;;;;;;;;;;;;;;5020856;28;1152;-62
2021/04/07 07:40:46;;;;;;;;;;;;;;;;;;5021031;28;1541;-62
2021/04/07 07:43:12;;;;;;;;;;;;;;;;;;5012652;28;855;-61
2021/04/07 07:45:40;;;;;;;;;;;;;;;;;;5023054;28;1902;-62
2021/04/07 07:48:12;;;;;;;;;;;;;;;;;;5027575;28;827;-62
2021/04/07 07:50:45;;;;;;;;;;;;;;;;;;5028983;28;1052;-61
2021/04/07 07:53:18;;;;;;;;;;;;;;;;;;5029427;28;1028;-62
2021/04/07 07:55:45;;;;;;;;;;;;;;;;;;5034595;28;1079;-62
2021/04/07 07:58:10;;;;;;;;;;;;;;;;;;5027085;28;1532;-62
2021/04/07 08:00:36;;;;;;;;;;;;;;;;;;5036715;28;1223;-62
2021/04/07 08:03:11;;;;;;;;;;;;;;;;;;5029592;28;1214;-62
2021/04/07 08:05:37;;;;;;;;;;;;;;;;;;5027403;28;1910;-62
2021/04/07 08:08:03;;;;;;;;;;;;;;;;;;5029036;28;1071;-61
2021/04/07 08:10:29;;;;;;;;;;;;;;;;;;5029771;28;1218;-65
2021/04/07 08:12:56;;;;;;;;;;;;;;;;;;5036455;28;1064;-61
2021/04/07 08:15:22;;;;;;;;;;;;;;;;;;5039316;28;1156;-61
2021/04/07 08:17:47;;;;;;;;;;;;;;;;;;5037888;28;1152;-60
2021/04/07 08:20:13;;;;;;;;;;;;;;;;;;5028709;28;1171;-60
2021/04/07 08:22:38;;;;;;;;;;;;;;;;;;5034673;28;1060;-60
2021/04/07 08:25:04;;;;;;;;;;;;;;;;;;5036119;28;1972;-60
2021/04/07 08:27:32;;;;;;;;;;;;;;;;;;5033844;28;1249;-62
2021/04/07 08:29:57;;;;;;;;;;;;;;;;;;5034981;28;1520;-60
2021/04/07 08:32:23;;;;;;;;;;;;;;;;;;5029164;28;1124;-60
2021/04/07 08:34:49;;;;;;;;;;;;;;;;;;5046652;28;1173;-60
2021/04/07 08:37:28;;;;;;;;;;;;;;;;;;5046368;28;1041;-60
2021/04/07 08:39:54;;;;;;;;;;;;;;;;;;5046276;28;819;-59
2021/04/07 08:42:19;;;;;;;;;;;;;;;;;;5046938;28;891;-59
2021/04/07 08:44:46;;;;;;;;;;;;;;;;;;5047050;28;1996;-59
2021/04/07 08:47:31;;;;;;;;;;;;;;;;;;5046753;28;934;-60
2021/04/07 08:50:07;;;;;;;;;;;;;;;;;;5047223;28;901;-60
2021/04/07 08:52:41;;;;;;;;;;;;;;;;;;5046905;28;1209;-60
2021/04/07 08:55:12;;;;;;;;;;;;;;;;;;5026606;28;1119;-59
2021/04/07 08:57:39;;;;;;;;;;;;;;;;;;5026727;28;961;-59
2021/04/07 09:00:04;;;;;;;;;;;;;;;;;;5026752;28;959;-60
2021/04/07 09:02:30;;;;;;;;;;;;;;;;;;5026503;28;859;-60
2021/04/07 09:05:06;;;;;;;;;;;;;;;;;;5027620;28;2011;-59
2021/04/07 09:07:38;;;;;;;;;;;;;;;;;;5026959;28;1086;-59
2021/04/07 09:10:08;;;;;;;;;;;;;;;;;;5029380;28;874;-59
2021/04/07 09:12:34;;;;;;;;;;;;;;;;;;5030277;28;851;-60
2021/04/07 09:15:09;;;;;;;;;;;;;;;;;;5030359;28;891;-60
2021/04/07 09:17:41;;;;;;;;;;;;;;;;;;5030915;28;843;-60
2021/04/07 09:20:07;;;;;;;;;;;;;;;;;;5030487;28;886;-60
2021/04/07 09:22:44;;;;;;;;;;;;;;;;;;5030537;28;675;-59
2021/04/07 09:25:10;;;;;;;;;;;;;;;;;;5030185;28;1977;-59
2021/04/07 09:27:35;;;;;;;;;;;;;;;;;;5029928;28;919;-60
2021/04/07 09:30:04;;;;;;;;;;;;;;;;;;5025829;28;1668;-60
2021/04/07 09:32:30;;;;;;;;;;;;;;;;;;5010410;28;1022;-60
2021/04/07 09:34:57;;;;;;;;;;;;;;;;;;5011828;28;843;-60
2021/04/07 09:37:23;;;;;;;;;;;;;;;;;;5011343;28;839;-59
2021/04/07 09:39:49;;;;;;;;;;;;;;;;;;5010896;28;905;-59
2021/04/07 09:42:14;;;;;;;;;;;;;;;;;;5010752;28;689;-60
2021/04/07 09:44:39;;;;;;;;;;;;;;;;;;5009642;28;1969;-60
2021/04/07 09:47:05;;;;;;;;;;;;;;;;;;5010490;28;609;-59
2021/04/07 09:49:32;;;;;;;;;;;;;;;;;;5010403;28;848;-59
2021/04/07 09:51:58;;;;;;;;;;;;;;;;;;5010615;28;1051;-60
2021/04/07 09:54:27;;;;;;;;;;;;;;;;;;5023989;28;1096;-59
2021/04/07 09:56:59;;;;;;;;;;;;;;;;;;5030349;28;807;-59
2021/04/07 09:59:31;;;;;;;;;;;;;;;;;;5030646;28;938;-59
2021/04/07 10:01:57;;;;;;;;;;;;;;;;;;5011941;28;870;-60
2021/04/07 10:04:42;;;;;;;;;;;;;;;;;;5030624;28;1981;-59
2021/04/07 10:07:14;;;;;;;;;;;;;;;;;;5030081;28;946;-59
2021/04/07 10:09:41;;;;;;;;;;;;;;;;;;5029882;28;847;-59
2021/04/07 10:12:07;;;;;;;;;;;;;;;;;;5029869;28;800;-59
2021/04/07 10:14:32;;;;;;;;;;;;;;;;;;5029754;28;848;-59
2021/04/07 10:16:57;;;;;;;;;;;;;;;;;;5029883;28;895;-59
2021/04/07 10:19:27;;;;;;;;;;;;;;;;;;5026987;28;1043;-59
2021/04/07 10:21:57;;;;;;;;;;;;;;;;;;5030669;28;891;-59
2021/04/07 10:24:23;;;;;;;;;;;;;;;;;;5030702;28;1890;-59
2021/04/07 10:26:48;;;;;;;;;;;;;;;;;;5029359;28;824;-59
2021/04/07 10:29:22;;;;;;;;;;;;;;;;;;5029160;28;863;-59
2021/04/07 10:31:54;;;;;;;;;;;;;;;;;;5029402;28;852;-59
2021/04/07 10:34:27;;;;;;;;;;;;;;;;;;5029730;28;906;-59
2021/04/07 10:36:53;;;;;;;;;;;;;;;;;;5030246;28;870;-59
2021/04/07 10:39:18;;;;;;;;;;;;;;;;;;5019975;28;1316;-60
2021/04/07 10:41:47;;;;;;;;;;;;;;;;;;5023619;28;1237;-59
2021/04/07 10:44:26;;;;;;;;;;;;;;;;;;5017949;28;1894;-60
2021/04/07 10:46:52;;;;;;;;;;;;;;;;;;5009521;28;868;-60
2021/04/07 10:49:17;;;;;;;;;;;;;;;;;;5007413;28;1221;-60
2021/04/07 10:51:43;;;;;;;;;;;;;;;;;;5009576;28;931;-60
2021/04/07 10:54:10;;;;;;;;;;;;;;;;;;5006737;28;1993;-60
2021/04/07 10:56:36;;;;;;;;;;;;;;;;;;5009014;28;911;-60
2021/04/07 10:59:03;;;;;;;;;;;;;;;;;;5009688;28;870;-60
2021/04/07 11:01:29;;;;;;;;;;;;;;;;;;5028154;28;870;-60
2021/04/07 11:03:54;;;;;;;;;;;;;;;;;;5029155;28;1983;-60
2021/04/07 11:06:21;;;;;;;;;;;;;;;;;;5031276;28;1171;-60
2021/04/07 11:08:46;;;;;;;;;;;;;;;;;;5028592;28;819;-60
2021/04/07 11:11:19;;;;;;;;;;;;;;;;;;5028731;28;831;-60
2021/04/07 11:13:46;;;;;;;;;;;;;;;;;;5026664;28;1700;-60
2021/04/07 11:16:11;;;;;;;;;;;;;;;;;;5025560;28;1610;-61
2021/04/07 11:18:40;;;;;;;;;;;;;;;;;;5030373;28;1532;-61
2021/04/07 11:21:08;;;;;;;;;;;;;;;;;;5039419;28;1212;-60
2021/04/07 11:23:35;;;;;;;;;;;;;;;;;;5027369;28;1696;-60
2021/04/07 11:26:02;;;;;;;;;;;;;;;;;;5027208;28;1962;-61
2021/04/07 11:28:27;;;;;;;;;;;;;;;;;;5027660;28;1171;-61
2021/04/07 11:31:03;;;;;;;;;;;;;;;;;;5029876;28;1481;-60
2021/04/07 11:33:36;;;;;;;;;;;;;;;;;;5026993;28;1273;-61
2021/04/07 11:36:10;;;;;;;;;;;;;;;;;;5027579;28;1199;-61
2021/04/07 11:38:36;;;;;;;;;;;;;;;;;;5027748;28;1210;-60
2021/04/07 11:44:25;;;;;;;;;;;;;;;;;;5027492;28;1890;-60
2021/04/07 11:46:32;;;;;;;;;;;;;;;;;;5026945;28;1098;-60
2021/04/07 11:48:57;;;;;;;;;;;;;;;;;;5027199;28;1617;-61
2021/04/07 11:51:22;;;;;;;;;;;;;;;;;;5028068;28;1175;-61
2021/04/07 11:53:48;;;;;;;;;;;;;;;;;;5027092;28;1080;-60
2021/04/07 11:56:15;;;;;;;;;;;;;;;;;;5027734;28;843;-60
2021/04/07 11:58:40;;;;;;;;;;;;;;;;;;5027330;28;930;-60
2021/04/07 12:01:06;;;;;;;;;;;;;;;;;;5026571;28;954;-60
2021/04/07 12:03:32;;;;;;;;;;;;;;;;;;5018822;28;1281;-60
2021/04/07 12:05:57;;;;;;;;;;;;;;;;;;5007031;28;1918;-62
2021/04/07 12:08:23;;;;;;;;;;;;;;;;;;5008243;28;921;-60
2021/04/07 12:10:49;;;;;;;;;;;;;;;;;;5007326;28;1110;-60
2021/04/07 12:13:14;;;;;;;;;;;;;;;;;;4992129;28;1334;-61
2021/04/07 12:15:40;;;;;;;;;;;;;;;;;;5023190;28;1205;-60
2021/04/07 12:18:06;;;;;;;;;;;;;;;;;;5007502;28;1216;-61
2021/04/07 12:20:32;;;;;;;;;;;;;;;;;;5008082;28;839;-61
2021/04/07 12:22:59;;;;;;;;;;;;;;;;;;5008889;28;1395;-61
2021/04/07 12:25:25;;;;;;;;;;;;;;;;;;5013884;28;1946;-60
2021/04/07 12:27:50;;;;;;;;;;;;;;;;;;5006918;28;1369;-60
2021/04/07 12:30:16;;;;;;;;;;;;;;;;;;5005252;28;875;-60
2021/04/07 12:32:41;;;;;;;;;;;;;;;;;;5006200;28;871;-60
2021/04/07 12:35:10;;;;;;;;;;;;;;;;;;5007363;28;760;-60
2021/04/07 12:37:38;;;;;;;;;;;;;;;;;;5007906;28;840;-60
2021/04/07 12:40:04;;;;;;;;;;;;;;;;;;5007274;28;851;-60
2021/04/07 12:42:29;;;;;;;;;;;;;;;;;;5007366;28;799;-60
2021/04/07 12:44:55;;;;;;;;;;;;;;;;;;5007372;28;1890;-60
2021/04/07 12:47:20;;;;;;;;;;;;;;;;;;5007635;28;824;-60
2021/04/07 12:49:45;;;;;;;;;;;;;;;;;;5007451;28;868;-60
2021/04/07 12:52:11;;;;;;;;;;;;;;;;;;5007110;28;843;-60
2021/04/07 12:54:36;;;;;;;;;;;;;;;;;;5022777;28;1146;-61
2021/04/07 12:57:02;;;;;;;;;;;;;;;;;;5016101;28;1187;-61
2021/04/07 12:59:28;;;;;;;;;;;;;;;;;;5010755;28;887;-61
2021/04/07 13:01:53;;;;;;;;;;;;;;;;;;5027414;28;847;-60
2021/04/07 13:04:19;;;;;;;;;;;;;;;;;;5026410;28;1992;-60
2021/04/07 13:06:44;;;;;;;;;;;;;;;;;;5026769;28;879;-61
2021/04/07 13:09:09;;;;;;;;;;;;;;;;;;5026567;28;914;-60
2021/04/07 13:11:35;;;;;;;;;;;;;;;;;;5026722;28;831;-61
2021/04/07 13:14:00;;;;;;;;;;;;;;;;;;5026360;28;804;-61
2021/04/07 13:16:25;;;;;;;;;;;;;;;;;;5027393;28;910;-60
2021/04/07 13:18:51;;;;;;;;;;;;;;;;;;5026895;28;740;-60
2021/04/07 13:21:16;;;;;;;;;;;;;;;;;;5026893;28;812;-60
2021/04/07 13:23:42;;;;;;;;;;;;;;;;;;5025996;28;1895;-60
2021/04/07 13:26:10;;;;;;;;;;;;;;;;;;5026545;28;855;-60
2021/04/07 13:28:35;;;;;;;;;;;;;;;;;;5026478;28;891;-60
2021/04/07 13:31:02;;;;;;;;;;;;;;;;;;5026566;28;878;-60
2021/04/07 13:33:30;;;;;;;;;;;;;;;;;;5026252;28;951;-60
2021/04/07 13:36:01;;;;;;;;;;;;;;;;;;5027597;28;880;-60
2021/04/07 13:38:41;;;;;;;;;;;;;;;;;;5026419;28;911;-61
2021/04/07 13:43:38;;;;;;;;;;;;;;;;;;5025465;28;1116;-61
2021/04/07 13:46:03;;;;;;;;;;;;;;;;;;5026404;28;1991;-61
2021/04/07 13:48:29;;;;;;;;;;;;;;;;;;5026545;28;843;-60
2021/04/07 13:50:55;;;;;;;;;;;;;;;;;;5026412;28;971;-60
2021/04/07 13:53:20;;;;;;;;;;;;;;;;;;5026397;28;1408;-60
2021/04/07 13:55:50;;;;;;;;;;;;;;;;;;5033222;28;1227;-60
2021/04/07 13:58:16;;;;;;;;;;;;;;;;;;5039881;28;1207;-59
2021/04/07 14:00:42;;;;;;;;;;;;;;;;;;5040247;28;1575;-59
2021/04/07 14:03:07;;;;;;;;;;;;;;;;;;5028853;28;1167;-59
2021/04/07 14:05:33;;;;;;;;;;;;;;;;;;5026149;28;1999;-60
2021/04/07 14:07:59;;;;;;;;;;;;;;;;;;5029532;28;1337;-60
2021/04/07 14:10:25;;;;;;;;;;;;;;;;;;5026011;28;1505;-61
2021/04/07 14:12:54;;;;;;;;;;;;;;;;;;5030649;28;1564;-60
2021/04/07 14:15:22;;;;;;;;;;;;;;;;;;5030830;28;1060;-61
2021/04/07 14:17:50;;;;;;;;;;;;;;;;;;5036663;28;1184;-60
2021/04/07 14:20:17;;;;;;;;;;;;;;;;;;5029203;28;1113;-60
2021/04/07 14:22:45;;;;;;;;;;;;;;;;;;5028757;28;1521;-60
2021/04/07 14:25:15;;;;;;;;;;;;;;;;;;5029397;28;1902;-61
2021/04/07 14:27:45;;;;;;;;;;;;;;;;;;5029851;28;1176;-61
2021/04/07 14:30:14;;;;;;;;;;;;;;;;;;5045410;28;1048;-60
2021/04/07 14:32:42;;;;;;;;;;;;;;;;;;5049245;28;930;-60
2021/04/07 14:35:09;;;;;;;;;;;;;;;;;;5049060;28;848;-60
2021/04/07 14:37:38;;;;;;;;;;;;;;;;;;5041493;28;1079;-60
2021/04/07 14:40:08;;;;;;;;;;;;;;;;;;5027699;28;925;-60
2021/04/07 14:42:37;;;;;;;;;;;;;;;;;;5028340;28;902;-60
2021/04/07 14:45:06;;;;;;;;;;;;;;;;;;5028443;28;1898;-60
2021/04/07 14:47:33;;;;;;;;;;;;;;;;;;5028419;28;891;-60
2021/04/07 14:50:01;;;;;;;;;;;;;;;;;;5028692;28;902;-60
2021/04/07 14:52:29;;;;;;;;;;;;;;;;;;5034015;28;1431;-60
2021/04/07 14:55:00;;;;;;;;;;;;;;;;;;5038723;28;1175;-61
2021/04/07 14:57:29;;;;;;;;;;;;;;;;;;5042275;28;1206;-61
2021/04/07 14:59:58;;;;;;;;;;;;;;;;;;5045242;28;1363;-60
2021/04/07 15:02:26;;;;;;;;;;;;;;;;;;5044787;28;1083;-59
2021/04/07 15:04:54;;;;;;;;;;;;;;;;;;5048579;28;1910;-60
2021/04/07 15:07:21;;;;;;;;;;;;;;;;;;5047855;28;1286;-61
2021/04/07 15:09:48;;;;;;;;;;;;;;;;;;5048168;28;1182;-60
2021/04/07 15:12:16;;;;;;;;;;;;;;;;;;5047821;28;1151;-60
2021/04/07 15:14:43;;;;;;;;;;;;;;;;;;5048117;28;1175;-60
2021/04/07 15:17:11;;;;;;;;;;;;;;;;;;5029984;28;1191;-60
2021/04/07 15:19:38;;;;;;;;;;;;;;;;;;5047335;28;1063;-61
2021/04/07 15:22:06;;;;;;;;;;;;;;;;;;5037277;28;1496;-61
2021/04/07 15:24:34;;;;;;;;;;;;;;;;;;5045891;28;1894;-61
2021/04/07 15:27:06;;;;;;;;;;;;;;;;;;5038965;28;1186;-61
2021/04/07 15:29:35;;;;;;;;;;;;;;;;;;5062442;28;1408;-61
2021/04/07 15:32:02;;;;;;;;;;;;;;;;;;5047966;28;1159;-60
2021/04/07 15:34:29;;;;;;;;;;;;;;;;;;5041613;28;1607;-62
2021/04/07 15:36:57;;;;;;;;;;;;;;;;;;5042032;28;1196;-61
2021/04/07 15:39:24;;;;;;;;;;;;;;;;;;5047971;28;1250;-61
2021/04/07 15:41:52;;;;;;;;;;;;;;;;;;5047003;28;1100;-60
2021/04/07 15:44:19;;;;;;;;;;;;;;;;;;5047203;28;1971;-59
2021/04/07 15:46:44;;;;;;;;;;;;;;;;;;5047050;28;1072;-60
2021/04/07 15:49:09;;;;;;;;;;;;;;;;;;5047601;28;1219;-60
2021/04/07 15:51:35;;;;;;;;;;;;;;;;;;5045777;28;1083;-60
2021/04/07 15:54:00;;;;;;;;;;;;;;;;;;5044306;28;1166;-61
2021/04/07 15:56:26;;;;;;;;;;;;;;;;;;5047621;28;1155;-60
2021/04/07 15:58:52;;;;;;;;;;;;;;;;;;5047294;28;1141;-61
2021/04/07 16:01:18;;;;;;;;;;;;;;;;;;5066042;28;1241;-60
2021/04/07 16:03:43;;;;;;;;;;;;;;;;;;5033021;28;1282;-61
2021/04/07 16:06:09;;;;;;;;;;;;;;;;;;5035051;28;1971;-61
2021/04/07 16:08:35;;;;;;;;;;;;;;;;;;5031417;28;1159;-60
2021/04/07 16:11:01;;;;;;;;;;;;;;;;;;5034123;28;1168;-60
2021/04/07 16:13:26;;;;;;;;;;;;;;;;;;5033034;28;1099;-60
2021/04/07 16:15:52;;;;;;;;;;;;;;;;;;5039081;28;1183;-61
2021/04/07 16:18:18;;;;;;;;;;;;;;;;;;5045838;28;1179;-60
2021/04/07 16:20:43;;;;;;;;;;;;;;;;;;5031804;28;1160;-60
2021/04/07 16:23:09;;;;;;;;;;;;;;;;;;5034774;28;1451;-60
2021/04/07 16:25:34;;;;;;;;;;;;;;;;;;5032307;28;1922;-60
2021/04/07 16:28:00;;;;;;;;;;;;;;;;;;5038450;28;1077;-60
2021/04/07 16:30:31;;;;;;;;;;;;;;;;;;5039449;28;1175;-60
2021/04/07 16:32:57;;;;;;;;;;;;;;;;;;5037779;28;1262;-61
2021/04/07 16:35:23;;;;;;;;;;;;;;;;;;5033795;28;1191;-59
2021/04/07 16:37:48;;;;;;;;;;;;;;;;;;5032911;28;1337;-59
2021/04/07 16:40:14;;;;;;;;;;;;;;;;;;5046514;28;870;-62
2021/04/07 16:42:40;;;;;;;;;;;;;;;;;;5046241;28;843;-61
2021/04/07 16:45:06;;;;;;;;;;;;;;;;;;5047007;28;1914;-61
2021/04/07 16:47:34;;;;;;;;;;;;;;;;;;5047118;28;906;-60
2021/04/07 16:50:00;;;;;;;;;;;;;;;;;;5046869;28;842;-61
2021/04/07 16:52:26;;;;;;;;;;;;;;;;;;5030243;28;1080;-59
2021/04/07 16:54:52;;;;;;;;;;;;;;;;;;5027104;28;1155;-60
2021/04/07 16:57:18;;;;;;;;;;;;;;;;;;5045977;28;1075;-61
2021/04/07 16:59:43;;;;;;;;;;;;;;;;;;5035838;28;1231;-61
2021/04/07 17:02:09;;;;;;;;;;;;;;;;;;5027065;28;891;-60
2021/04/07 17:04:34;;;;;;;;;;;;;;;;;;5028985;28;1926;-60
2021/04/07 17:07:01;;;;;;;;;;;;;;;;;;5031016;28;1205;-60
2021/04/07 17:09:26;;;;;;;;;;;;;;;;;;5027021;28;890;-60
2021/04/07 17:11:52;;;;;;;;;;;;;;;;;;5009660;28;852;-61